sensor_id;sensor_type;location;lat;lon;timestamp;pressure;altitude;pressure_sealevel;temperature;humidity
7586;BME280;12459;42.646;23.292;2024-02-14T00:10:45;93276.78;;;7.35;92.52
7586;BME280;12459;42.646;23.292;2024-02-14T00:25:47;93267.56;;;6.56;92.13
7586;BME280;12459;42.646;23.292;2024-02-14T00:40:51;93484.44;;;8.02;93.39
7586;BME280;12459;42.646;23.292;2024-02-14T00:55:53;93322.69;;;6.66;90.90
7586;BME280;12459;42.646;23.292;2024-02-14T01:10:54;93153.66;;;6.04;91.82
7586;BME280;12459;42.646;23.292;2024-02-14T01:25:56;93484.38;;;8.13;90.45
7586;BME280;12459;42.646;23.292;2024-02-14T01:40:58;93213.66;;;6.23;89.94
7586;BME280;12459;42.646;23.292;2024-02-14T01:56:00;93173.03;;;6.08;88.73
7586;BME280;12459;42.646;23.292;2024-02-14T02:11:02;93386.34;;;7.55;90.71
7586;BME280;12459;42.646;23.292;2024-02-14T02:26:04;93201.88;;;6.31;89.19
7586;BME280;12459;42.646;23.292;2024-02-14T02:41:06;93228.50;;;6.10;87.24
7586;BME280;12459;42.646;23.292;2024-02-14T02:56:08;93081.28;;;5.22;86.43
7586;BME280;12459;42.646;23.292;2024-02-14T03:11:10;93431.38;;;7.35;86.99
7586;BME280;12459;42.646;23.292;2024-02-14T03:26:11;93447.28;;;7.56;85.90
7586;BME280;12459;42.646;23.292;2024-02-14T03:41:13;93549.25;;;7.96;84.14
7586;BME280;12459;42.646;23.292;2024-02-14T03:56:15;93434.03;;;7.31;84.22
7586;BME280;12459;42.646;23.292;2024-02-14T04:11:17;93585.91;;;7.78;84.82
7586;BME280;12459;42.646;23.292;2024-02-14T04:26:20;93184.75;;;4.83;83.71
7586;BME280;12459;42.646;23.292;2024-02-14T04:41:22;93523.88;;;7.38;84.42
7586;BME280;12459;42.646;23.292;2024-02-14T04:56:26;93567.59;;;7.80;83.04
7586;BME280;12459;42.646;23.292;2024-02-14T05:11:28;93623.25;;;7.78;83.59
7586;BME280;12459;42.646;23.292;2024-02-14T05:26:30;93451.22;;;6.42;82.85
7586;BME280;12459;42.646;23.292;2024-02-14T05:41:31;93643.44;;;7.61;84.24
7586;BME280;12459;42.646;23.292;2024-02-14T05:56:34;93687.63;;;7.65;84.30
7586;BME280;12459;42.646;23.292;2024-02-14T06:11:37;93684.97;;;7.37;83.46
7586;BME280;12459;42.646;23.292;2024-02-14T06:26:42;93662.06;;;7.11;81.28
7586;BME280;12459;42.646;23.292;2024-02-14T06:41:44;93204.34;;;4.39;80.14
7586;BME280;12459;42.646;23.292;2024-02-14T06:56:47;93291.91;;;4.50;79.07
7586;BME280;12459;42.646;23.292;2024-02-14T07:11:49;93786.31;;;7.65;78.44
7586;BME280;12459;42.646;23.292;2024-02-14T07:26:52;93381.94;;;4.25;78.04
7586;BME280;12459;42.646;23.292;2024-02-14T07:41:54;93527.84;;;5.21;78.34
7586;BME280;12459;42.646;23.292;2024-02-14T07:56:58;93557.03;;;5.83;79.78
7586;BME280;12459;42.646;23.292;2024-02-14T08:12:00;93719.03;;;6.71;81.73
7586;BME280;12459;42.646;23.292;2024-02-14T08:27:02;93391.44;;;3.89;83.39
7586;BME280;12459;42.646;23.292;2024-02-14T08:42:08;93807.59;;;7.48;82.61
7586;BME280;12459;42.646;23.292;2024-02-14T08:57:10;93826.50;;;7.14;81.38
7586;BME280;12459;42.646;23.292;2024-02-14T09:12:12;93351.34;;;3.91;81.46
7586;BME280;12459;42.646;23.292;2024-02-14T09:27:13;93853.94;;;7.18;84.46
7586;BME280;12459;42.646;23.292;2024-02-14T09:42:16;93832.50;;;6.93;87.39
7586;BME280;12459;42.646;23.292;2024-02-14T09:57:21;93804.63;;;6.73;85.55
7586;BME280;12459;42.646;23.292;2024-02-14T10:12:23;93671.59;;;6.18;84.43
7586;BME280;12459;42.646;23.292;2024-02-14T10:27:25;93764.03;;;6.97;83.50
7586;BME280;12459;42.646;23.292;2024-02-14T10:42:27;93626.56;;;5.85;80.69
7586;BME280;12459;42.646;23.292;2024-02-14T10:57:30;93465.81;;;4.95;78.65
7586;BME280;12459;42.646;23.292;2024-02-14T11:12:34;93701.59;;;6.12;78.95
7586;BME280;12459;42.646;23.292;2024-02-14T11:27:44;93618.06;;;5.13;79.49
7586;BME280;12459;42.646;23.292;2024-02-14T11:42:46;93745.34;;;6.21;84.60
7586;BME280;12459;42.646;23.292;2024-02-14T11:57:49;93805.09;;;6.89;81.13
7586;BME280;12459;42.646;23.292;2024-02-14T12:12:52;93438.47;;;3.96;80.42
7586;BME280;12459;42.646;23.292;2024-02-14T12:27:56;93797.47;;;6.88;79.66
7586;BME280;12459;42.646;23.292;2024-02-14T12:42:58;93702.06;;;6.24;77.32
7586;BME280;12459;42.646;23.292;2024-02-14T12:58:00;93827.44;;;7.57;76.03
7586;BME280;12459;42.646;23.292;2024-02-14T13:13:02;93878.97;;;8.00;72.76
7586;BME280;12459;42.646;23.292;2024-02-14T13:28:04;93918.63;;;8.02;71.79
7586;BME280;12459;42.646;23.292;2024-02-14T13:43:07;93427.91;;;4.98;70.32
7586;BME280;12459;42.646;23.292;2024-02-14T13:58:09;93403.47;;;4.68;69.96
7586;BME280;12459;42.646;23.292;2024-02-14T14:13:16;93656.28;;;6.84;69.54
7586;BME280;12459;42.646;23.292;2024-02-14T14:28:18;93890.81;;;8.17;69.48
7586;BME280;12459;42.646;23.292;2024-02-14T14:43:26;93751.22;;;7.42;68.67
7586;BME280;12459;42.646;23.292;2024-02-14T14:58:29;93883.13;;;7.77;69.86
7586;BME280;12459;42.646;23.292;2024-02-14T15:13:35;93838.88;;;7.58;67.49
7586;BME280;12459;42.646;23.292;2024-02-14T15:28:36;93566.91;;;5.78;67.31
7586;BME280;12459;42.646;23.292;2024-02-14T15:43:42;93740.31;;;6.67;67.93
7586;BME280;12459;42.646;23.292;2024-02-14T15:58:45;93546.00;;;5.19;67.80
7586;BME280;12459;42.646;23.292;2024-02-14T16:13:47;93724.91;;;6.29;67.55
7586;BME280;12459;42.646;23.292;2024-02-14T16:28:49;93836.69;;;6.32;67.45
7586;BME280;12459;42.646;23.292;2024-02-14T16:43:51;93732.09;;;5.77;68.15
7586;BME280;12459;42.646;23.292;2024-02-14T16:58:52;93774.53;;;6.07;66.60
7586;BME280;12459;42.646;23.292;2024-02-14T17:13:54;93800.72;;;6.56;65.66
7586;BME280;12459;42.646;23.292;2024-02-14T17:28:57;94016.59;;;7.98;66.20
7586;BME280;12459;42.646;23.292;2024-02-14T17:43:59;93744.97;;;5.71;65.14
7586;BME280;12459;42.646;23.292;2024-02-14T17:59:03;94018.59;;;7.43;64.51
7586;BME280;12459;42.646;23.292;2024-02-14T18:14:05;93890.50;;;6.15;65.10
7586;BME280;12459;42.646;23.292;2024-02-14T18:29:07;93869.88;;;6.05;64.09
7586;BME280;12459;42.646;23.292;2024-02-14T18:44:09;93875.78;;;6.76;64.71
7586;BME280;12459;42.646;23.292;2024-02-14T18:59:14;93839.44;;;5.99;64.66
7586;BME280;12459;42.646;23.292;2024-02-14T19:14:17;94048.69;;;7.43;64.66
7586;BME280;12459;42.646;23.292;2024-02-14T19:29:20;93950.84;;;6.07;63.94
7586;BME280;12459;42.646;23.292;2024-02-14T19:44:22;94060.41;;;6.87;64.55
7586;BME280;12459;42.646;23.292;2024-02-14T19:59:25;94046.19;;;6.35;67.60
7586;BME280;12459;42.646;23.292;2024-02-14T20:14:28;93948.25;;;6.15;66.54
7586;BME280;12459;42.646;23.292;2024-02-14T20:29:30;94095.50;;;6.59;67.73
7586;BME280;12459;42.646;23.292;2024-02-14T20:44:32;93936.75;;;5.70;67.43
7586;BME280;12459;42.646;23.292;2024-02-14T20:59:34;93945.78;;;5.32;67.76
7586;BME280;12459;42.646;23.292;2024-02-14T21:14:36;94070.44;;;6.64;67.67
7586;BME280;12459;42.646;23.292;2024-02-14T21:29:38;93863.63;;;5.20;66.96
7586;BME280;12459;42.646;23.292;2024-02-14T21:44:40;93890.75;;;5.06;67.31
7586;BME280;12459;42.646;23.292;2024-02-14T21:59:42;94090.44;;;6.84;66.98
7586;BME280;12459;42.646;23.292;2024-02-14T22:14:44;93980.84;;;6.04;66.64
7586;BME280;12459;42.646;23.292;2024-02-14T22:29:49;94067.19;;;6.81;65.46
7586;BME280;12459;42.646;23.292;2024-02-14T22:45:00;93964.13;;;6.04;65.02
7586;BME280;12459;42.646;23.292;2024-02-14T23:00:02;93780.81;;;3.98;65.98
7586;BME280;12459;42.646;23.292;2024-02-14T23:15:07;94014.38;;;6.13;65.39
7586;BME280;12459;42.646;23.292;2024-02-14T23:30:10;94099.91;;;6.45;65.91
7586;BME280;12459;42.646;23.292;2024-02-14T23:45:14;94111.44;;;6.56;65.93
